Time;durP1;ratioP1;P1;durP2;ratioP2;P2;SDS_P1;SDS_P2;PMS_P1;PMS_P2;Temp;Humidity;BMP_temperature;BMP_pressure;BME280_temperature;BME280_humidity;BME280_pressure;Samples;Min_cycle;Max_cycle;Signal;HPM_P1;HPM_P2
2023/10/10 00:02:19;;;;;;;17.15;10.68;;;16.20;99.90;;;;;;5129634;27;20088;-83
2023/10/10 00:04:47;;;;;;;17.48;10.63;;;16.30;99.90;;;;;;5130069;27;20047;-83
2023/10/10 00:07:15;;;;;;;20.08;11.45;;;16.40;99.90;;;;;;5131459;27;20051;-83
2023/10/10 00:09:44;;;;;;;20.02;10.60;;;16.30;99.90;;;;;;5130603;27;20031;-83
2023/10/10 00:12:18;;;;;;;16.70;10.70;;;16.20;99.90;;;;;;5129740;27;20035;-84
2023/10/10 00:14:50;;;;;;;15.07;10.05;;;16.10;99.90;;;;;;5170422;27;20099;-82
2023/10/10 00:17:17;;;;;;;18.02;10.40;;;16.00;99.90;;;;;;5152311;27;20039;-83
2023/10/10 00:19:54;;;;;;;16.75;9.98;;;15.90;99.90;;;;;;5149656;27;20039;-82
2023/10/10 00:22:34;;;;;;;23.98;12.85;;;15.80;99.90;;;;;;5139358;27;20039;-84
2023/10/10 00:25:12;;;;;;;16.73;9.45;;;15.80;99.90;;;;;;5138059;27;20038;-82
2023/10/10 00:27:43;;;;;;;17.52;9.48;;;15.80;99.90;;;;;;5158216;27;20080;-84
2023/10/10 00:30:12;;;;;;;36.70;23.88;;;15.80;99.90;;;;;;5133411;28;20088;-84
2023/10/10 00:32:42;;;;;;;20.63;9.70;;;15.80;99.90;;;;;;5141788;28;20035;-82
2023/10/10 00:35:14;;;;;;;25.17;15.95;;;15.80;99.90;;;;;;5139259;28;20043;-85
2023/10/10 00:37:44;;;;;;;15.25;9.55;;;15.80;99.90;;;;;;5134122;28;20039;-84
2023/10/10 00:40:25;;;;;;;13.77;8.65;;;15.90;99.90;;;;;;5116543;28;20039;-84
2023/10/10 00:42:53;;;;;;;15.50;8.63;;;15.80;99.90;;;;;;5113422;28;20079;-85
2023/10/10 00:45:23;;;;;;;14.38;8.50;;;15.90;99.90;;;;;;5105430;28;20087;-86
2023/10/10 00:47:53;;;;;;;14.75;8.52;;;15.80;99.90;;;;;;5103283;28;20069;-85
2023/10/10 00:50:25;;;;;;;14.63;8.10;;;15.70;99.90;;;;;;5104784;28;20048;-84
2023/10/10 00:52:56;;;;;;;14.50;8.65;;;15.60;99.90;;;;;;5119927;27;20028;-84
2023/10/10 00:55:29;;;;;;;14.68;8.45;;;15.50;99.90;;;;;;5126166;27;20024;-84
2023/10/10 00:58:01;;;;;;;17.90;9.45;;;15.50;99.90;;;;;;5115966;28;20074;-85
2023/10/10 01:00:32;;;;;;;19.38;9.60;;;15.50;99.90;;;;;;5120451;27;20123;-85
2023/10/10 01:03:07;;;;;;;22.42;9.18;;;15.40;99.90;;;;;;5101204;28;20044;-84
2023/10/10 01:05:52;;;;;;;22.30;9.75;;;15.30;99.90;;;;;;5108784;28;20054;-85
2023/10/10 01:08:19;;;;;;;16.80;10.02;;;15.30;99.90;;;;;;5112030;28;20043;-83
2023/10/10 01:10:49;;;;;;;16.13;9.52;;;15.40;99.90;;;;;;5122121;27;20088;-84
2023/10/10 01:13:17;;;;;;;17.73;8.80;;;15.50;99.90;;;;;;5112372;28;20040;-83
2023/10/10 01:15:46;;;;;;;18.10;9.02;;;15.40;99.90;;;;;;5095034;28;20131;-85
2023/10/10 01:18:15;;;;;;;13.63;8.07;;;15.40;99.90;;;;;;5103210;28;20044;-85
2023/10/10 01:20:49;;;;;;;16.42;8.95;;;15.30;99.90;;;;;;5102936;28;20126;-85
2023/10/10 01:23:26;;;;;;;15.43;9.25;;;15.10;99.90;;;;;;5102514;28;20040;-85
2023/10/10 01:25:56;;;;;;;15.13;9.80;;;15.00;99.90;;;;;;5100950;27;20089;-84
2023/10/10 01:28:33;;;;;;;16.48;9.25;;;15.00;99.90;;;;;;5119921;27;20047;-85
2023/10/10 01:31:06;;;;;;;14.82;9.10;;;15.00;99.90;;;;;;5123290;27;20444;-86
2023/10/10 01:33:41;;;;;;;13.27;8.55;;;15.00;99.90;;;;;;5102954;27;20043;-85
2023/10/10 01:36:19;;;;;;;13.98;8.93;;;15.10;99.90;;;;;;5103871;27;20046;-86
2023/10/10 01:39:23;;;;;;;13.73;9.00;;;15.10;99.90;;;;;;5105687;27;20208;-86
2023/10/10 01:41:51;;;;;;;18.80;9.38;;;15.10;99.90;;;;;;5086708;27;20035;-86
2023/10/10 01:44:22;;;;;;;17.13;9.23;;;15.10;99.90;;;;;;5105814;27;20036;-86
2023/10/10 01:46:51;;;;;;;16.42;9.57;;;15.20;99.90;;;;;;5108873;27;20071;-86
2023/10/10 01:49:25;;;;;;;15.38;9.27;;;15.20;99.90;;;;;;5112896;28;20043;-85
2023/10/10 01:51:55;;;;;;;15.30;9.13;;;15.10;99.90;;;;;;5107697;27;20040;-88
2023/10/10 01:54:34;;;;;;;18.20;9.48;;;15.00;99.90;;;;;;5101011;27;20113;-85
2023/10/10 01:57:06;;;;;;;15.07;9.25;;;15.00;99.90;;;;;;5124061;27;20494;-83
2023/10/10 01:59:38;;;;;;;15.23;9.05;;;14.90;99.90;;;;;;5119963;27;20044;-86
2023/10/10 02:02:10;;;;;;;17.15;9.45;;;14.90;99.90;;;;;;5103844;28;20044;-85
2023/10/10 02:04:39;;;;;;;21.73;9.13;;;14.80;99.90;;;;;;5107431;27;20130;-86
2023/10/10 02:07:14;;;;;;;13.77;8.63;;;14.90;99.90;;;;;;5106383;27;20498;-85
2023/10/10 02:09:43;;;;;;;13.65;8.25;;;14.80;99.90;;;;;;5123267;27;20100;-85
2023/10/10 02:12:16;;;;;;;15.55;8.45;;;14.90;99.90;;;;;;5105480;27;20126;-85
2023/10/10 02:14:44;;;;;;;18.13;8.80;;;14.90;99.90;;;;;;5091755;28;20035;-85
2023/10/10 02:17:23;;;;;;;16.55;8.98;;;15.00;99.90;;;;;;5096283;27;20077;-85
2023/10/10 02:19:59;;;;;;;14.15;8.23;;;15.00;99.90;;;;;;5122905;27;20039;-87
2023/10/10 02:22:49;;;;;;;18.40;9.10;;;15.10;99.90;;;;;;5108350;27;20580;-85
2023/10/10 02:28:03;;;;;;;17.50;8.82;;;15.30;99.90;;;;;;5103882;27;20051;-85
2023/10/10 02:30:37;;;;;;;18.10;9.45;;;15.20;99.90;;;;;;5119362;27;20039;-85
2023/10/10 02:33:14;;;;;;;15.60;9.40;;;15.20;99.90;;;;;;5101651;27;20114;-83
2023/10/10 02:35:58;;;;;;;14.63;8.35;;;15.10;99.90;;;;;;5114009;28;20040;-83
2023/10/10 02:38:39;;;;;;;18.27;9.70;;;15.10;99.90;;;;;;5122321;27;20079;-85
2023/10/10 02:43:56;;;;;;;16.13;9.23;;;15.10;99.90;;;;;;5117574;27;20150;-85
2023/10/10 02:46:34;;;;;;;18.83;9.90;;;15.10;99.90;;;;;;5105214;27;20129;-85
2023/10/10 02:49:09;;;;;;;18.60;8.57;;;15.20;99.90;;;;;;5103256;27;20127;-85
2023/10/10 02:51:40;;;;;;;16.90;9.40;;;15.20;99.90;;;;;;5098345;28;20044;-84
2023/10/10 02:54:27;;;;;;;16.98;8.90;;;15.00;99.90;;;;;;5098901;27;20073;-84
2023/10/10 02:56:57;;;;;;;16.92;10.55;;;15.10;99.90;;;;;;5122446;27;20043;-84
2023/10/10 02:59:31;;;;;;;15.93;9.68;;;15.00;99.90;;;;;;5102997;27;20118;-84
2023/10/10 03:02:08;;;;;;;17.13;9.43;;;15.00;99.90;;;;;;5096476;27;20508;-86
2023/10/10 03:07:27;;;;;;;14.43;9.65;;;15.10;99.90;;;;;;5090035;28;20539;-86
2023/10/10 03:10:22;;;;;;;20.25;10.93;;;15.10;99.90;;;;;;5112605;27;20114;-85
2023/10/10 03:12:51;;;;;;;19.25;11.50;;;15.10;99.90;;;;;;5104315;28;20050;-86
2023/10/10 03:15:30;;;;;;;19.13;10.52;;;15.10;99.90;;;;;;5115090;27;20062;-86
2023/10/10 03:18:19;;;;;;;17.98;11.00;;;15.10;99.90;;;;;;5113100;28;20062;-86
2023/10/10 03:21:06;;;;;;;19.05;10.65;;;15.10;99.90;;;;;;5095358;27;20046;-85
2023/10/10 03:23:43;;;;;;;16.77;10.88;;;15.10;99.90;;;;;;5112697;28;20483;-85
2023/10/10 03:26:31;;;;;;;15.40;10.48;;;15.10;99.90;;;;;;5115573;28;20131;-85
2023/10/10 03:29:04;;;;;;;18.67;11.52;;;15.00;99.90;;;;;;5114317;28;20441;-84
2023/10/10 03:31:41;;;;;;;17.23;10.32;;;15.00;99.90;;;;;;5131681;28;20042;-85
2023/10/10 03:34:20;;;;;;;21.73;11.70;;;14.90;99.90;;;;;;5116891;28;20046;-85
2023/10/10 03:37:04;;;;;;;15.15;9.98;;;15.00;99.90;;;;;;5122074;28;20100;-86
2023/10/10 03:39:43;;;;;;;17.83;10.13;;;14.90;99.90;;;;;;5129747;28;20039;-86
2023/10/10 05:23:35;;;;;;;24.65;11.93;;;14.30;99.90;;;;;;5065792;28;20060;-76
2023/10/10 05:26:05;;;;;;;22.23;12.55;;;14.40;99.90;;;;;;5070451;28;20048;-76
2023/10/10 05:28:40;;;;;;;20.73;11.13;;;14.40;99.90;;;;;;5073431;28;20071;-77
2023/10/10 05:31:09;;;;;;;24.08;11.00;;;14.40;99.90;;;;;;5063398;28;20052;-78
2023/10/10 05:33:37;;;;;;;148.45;27.25;;;14.40;99.90;;;;;;5064696;28;20519;-75
2023/10/10 05:36:07;;;;;;;29.48;15.80;;;14.30;99.90;;;;;;5065501;28;20048;-77
2023/10/10 05:38:39;;;;;;;31.92;11.23;;;14.30;99.90;;;;;;5065485;28;20064;-78
2023/10/10 05:41:07;;;;;;;23.05;10.73;;;14.30;99.90;;;;;;5063860;28;20044;-75
2023/10/10 05:43:35;;;;;;;18.52;10.27;;;14.30;99.90;;;;;;5066353;28;20053;-77
2023/10/10 05:46:04;;;;;;;18.35;9.98;;;14.30;99.90;;;;;;5064678;28;20052;-77
2023/10/10 05:48:32;;;;;;;17.13;10.60;;;14.60;99.90;;;;;;5073503;28;20049;-75
2023/10/10 05:51:01;;;;;;;26.48;15.93;;;14.70;99.90;;;;;;5084756;28;20057;-76
2023/10/10 05:53:32;;;;;;;24.52;13.45;;;14.90;99.90;;;;;;5077248;28;20050;-76
2023/10/10 05:56:12;;;;;;;17.02;11.00;;;15.00;99.90;;;;;;5071289;28;20048;-75
2023/10/10 05:58:44;;;;;;;23.10;9.50;;;15.10;99.90;;;;;;5063614;28;20068;-76
2023/10/10 06:01:14;;;;;;;20.48;9.75;;;15.30;99.90;;;;;;5068843;28;20045;-77
2023/10/10 06:03:42;;;;;;;15.82;9.10;;;15.40;99.90;;;;;;5070092;28;20041;-74
2023/10/10 06:06:13;;;;;;;15.75;8.13;;;15.60;99.90;;;;;;5075122;28;20061;-74
2023/10/10 06:08:43;;;;;;;17.90;9.40;;;15.60;99.90;;;;;;5071719;28;20555;-75
2023/10/10 06:11:14;;;;;;;20.33;9.07;;;15.80;99.90;;;;;;5111816;28;20074;-77
2023/10/10 06:13:43;;;;;;;24.23;11.35;;;15.90;14.80;;;;;;5081710;28;20040;-77
2023/10/10 06:16:14;;;;;;;20.25;10.02;;;15.90;1.00;;;;;;5082967;28;20044;-77
2023/10/10 06:18:44;;;;;;;20.48;9.35;;;15.90;1.00;;;;;;5078842;28;20037;-78
2023/10/10 06:21:14;;;;;;;20.65;10.93;;;15.90;1.00;;;;;;5079088;28;20467;-75
2023/10/10 06:23:44;;;;;;;24.10;11.23;;;15.90;1.00;;;;;;5082065;28;20399;-77
2023/10/10 06:26:13;;;;;;;23.38;10.07;;;15.90;1.00;;;;;;5079843;28;20404;-76
2023/10/10 06:28:47;;;;;;;22.35;9.02;;;16.00;1.00;;;;;;5078669;28;20108;-75
2023/10/10 06:31:19;;;;;;;21.05;10.10;;;16.10;99.90;;;;;;5091135;28;20082;-76
2023/10/10 06:33:49;;;;;;;21.52;10.90;;;16.10;99.90;;;;;;5095023;28;20060;-76
2023/10/10 06:36:33;;;;;;;20.50;9.95;;;16.20;99.90;;;;;;5088260;28;20108;-75
2023/10/10 06:41:47;;;;;;;18.40;11.23;;;16.10;99.90;;;;;;5096595;28;20130;-74
2023/10/10 06:44:15;;;;;;;18.08;11.20;;;16.30;1.00;;;;;;5091455;28;20063;-75
2023/10/10 06:46:48;;;;;;;18.92;9.55;;;16.40;99.90;;;;;;5087779;28;20054;-73
2023/10/10 06:49:16;;;;;;;17.52;9.30;;;16.40;1.00;;;;;;5082413;28;20064;-75
2023/10/10 06:51:46;;;;;;;19.98;8.57;;;16.30;1.00;;;;;;5095175;28;20048;-77
2023/10/10 06:54:27;;;;;;;17.13;8.68;;;16.50;1.00;;;;;;5094366;28;20143;-75
2023/10/10 06:57:05;;;;;;;18.73;10.98;;;16.70;1.00;;;;;;5093968;28;20048;-76
2023/10/10 06:59:35;;;;;;;17.23;8.18;;;16.90;1.00;;;;;;5097562;28;20119;-74
2023/10/10 07:02:13;;;;;;;15.52;8.60;;;16.90;1.00;;;;;;5087211;28;20040;-75
2023/10/10 07:04:41;;;;;;;22.33;8.63;;;16.80;1.00;;;;;;5084069;28;20049;-76
2023/10/10 07:07:11;;;;;;;19.23;8.98;;;16.90;99.90;;;;;;5086054;28;20514;-77
2023/10/10 07:09:42;;;;;;;16.80;9.73;;;17.00;1.00;;;;;;5084034;28;20137;-75
2023/10/10 07:12:11;;;;;;;16.92;8.50;;;17.40;1.00;;;;;;5090167;28;20044;-75
2023/10/10 07:14:48;;;;;;;18.63;9.40;;;17.70;1.00;;;;;;5079212;28;20049;-77
2023/10/10 07:17:16;;;;;;;19.63;10.57;;;17.80;1.00;;;;;;5086988;28;20076;-75
2023/10/10 07:21:04;;;;;;;19.88;10.88;;;17.80;1.00;;;;;;5083357;28;20040;-76
2023/10/10 07:22:45;;;;;;;17.77;8.88;;;18.00;99.90;;;;;;5082217;28;20072;-76
2023/10/10 07:25:31;;;;;;;12.27;6.32;;;18.50;1.00;;;;;;5088739;28;20735;-76
2023/10/10 07:28:04;;;;;;;18.88;7.20;;;18.80;1.00;;;;;;5089399;28;20095;-76
2023/10/10 07:30:35;;;;;;;17.33;7.20;;;19.20;99.90;;;;;;5089919;28;20036;-77
2023/10/10 07:33:03;;;;;;;16.30;7.43;;;19.60;99.90;;;;;;5090113;28;20060;-77
2023/10/10 07:35:36;;;;;;;18.80;7.93;;;19.60;47.20;;;;;;5091676;28;20291;-76
2023/10/10 07:38:04;;;;;;;19.48;7.65;;;19.80;1.00;;;;;;5094430;28;20165;-79
2023/10/10 07:40:37;;;;;;;18.77;11.30;;;19.70;1.00;;;;;;5091697;28;20430;-75
2023/10/10 07:43:07;;;;;;;15.90;9.60;;;19.70;1.00;;;;;;5097002;28;20048;-75
2023/10/10 07:45:43;;;;;;;18.38;9.90;;;19.70;1.00;;;;;;5092769;28;20527;-75
2023/10/10 07:51:06;;;;;;;16.67;7.75;;;20.10;1.00;;;;;;5089145;28;19951;-75
2023/10/10 07:53:42;;;;;;;18.17;8.18;;;20.40;1.00;;;;;;5100919;28;20028;-75
2023/10/10 07:56:10;;;;;;;18.25;10.15;;;20.40;1.00;;;;;;5108050;28;20074;-74
2023/10/10 07:58:49;;;;;;;17.00;7.60;;;20.50;1.00;;;;;;5107459;28;20099;-76
2023/10/10 08:01:17;;;;;;;20.23;8.57;;;20.70;1.00;;;;;;5106862;28;20059;-77
2023/10/10 08:03:45;;;;;;;16.55;8.65;;;20.90;1.00;;;;;;5102951;28;20055;-75
2023/10/10 08:06:17;;;;;;;19.77;10.48;;;21.20;1.00;;;;;;5103937;28;20044;-77
2023/10/10 08:08:48;;;;;;;25.23;14.75;;;21.50;1.00;;;;;;5084134;28;20059;-75
2023/10/10 08:11:35;;;;;;;22.55;11.90;;;21.80;99.90;;;;;;5105541;28;20135;-76
2023/10/10 08:14:07;;;;;;;26.70;17.08;;;22.00;99.90;;;;;;5105606;28;20049;-73
2023/10/10 08:16:35;;;;;;;26.33;15.02;;;22.20;99.90;;;;;;5104633;28;20067;-76
2023/10/10 08:19:07;;;;;;;25.33;16.15;;;22.10;99.90;;;;;;5102017;28;20051;-76
2023/10/10 08:21:38;;;;;;;21.10;15.27;;;22.00;99.90;;;;;;5096807;28;20036;-77
2023/10/10 08:24:08;;;;;;;22.88;13.50;;;22.00;99.90;;;;;;5096250;28;20048;-76
2023/10/10 08:26:44;;;;;;;24.52;13.70;;;22.00;99.90;;;;;;5099026;28;20047;-78
2023/10/10 08:29:14;;;;;;;21.33;13.15;;;21.80;99.90;;;;;;5095804;28;20068;-76
2023/10/10 08:31:44;;;;;;;21.88;13.32;;;21.80;99.90;;;;;;5096262;28;20040;-76
2023/10/10 08:34:13;;;;;;;23.33;15.48;;;21.80;99.90;;;;;;5088318;28;20040;-77
2023/10/10 08:36:43;;;;;;;30.70;15.70;;;21.90;99.90;;;;;;5084497;28;20068;-75
2023/10/10 08:39:25;;;;;;;27.08;15.40;;;22.10;99.90;;;;;;5081340;28;20052;-75
2023/10/10 08:41:54;;;;;;;23.00;14.05;;;22.20;99.90;;;;;;5083968;28;20040;-77
2023/10/10 08:44:24;;;;;;;27.80;17.05;;;21.90;99.90;;;;;;5084633;28;20044;-74
2023/10/10 08:46:59;;;;;;;27.67;16.38;;;21.70;99.90;;;;;;5085700;28;20036;-74
2023/10/10 08:49:30;;;;;;;29.88;15.73;;;22.00;99.90;;;;;;5082881;28;20102;-78
2023/10/10 08:52:02;;;;;;;26.35;12.38;;;22.30;99.90;;;;;;5083319;28;20064;-75
2023/10/10 08:54:32;;;;;;;19.42;10.80;;;22.40;99.90;;;;;;5091136;28;20094;-76
2023/10/10 08:57:03;;;;;;;21.75;10.52;;;22.50;99.90;;;;;;5084545;28;20220;-78
2023/10/10 08:59:35;;;;;;;21.45;10.63;;;22.60;99.90;;;;;;5084472;28;20055;-74
2023/10/10 09:02:16;;;;;;;18.52;11.02;;;22.60;99.90;;;;;;5081641;28;20043;-74
2023/10/10 09:04:44;;;;;;;19.92;9.90;;;22.70;99.90;;;;;;5099058;28;20040;-75
2023/10/10 09:07:20;;;;;;;23.73;11.40;;;22.70;99.90;;;;;;5116345;28;20046;-75
2023/10/10 09:09:54;;;;;;;21.90;11.32;;;22.70;99.90;;;;;;5100299;28;20056;-75
2023/10/10 09:12:26;;;;;;;16.98;8.60;;;22.60;99.90;;;;;;5079260;28;20377;-78
2023/10/10 09:14:57;;;;;;;20.17;10.52;;;22.60;99.90;;;;;;5086102;28;20503;-74
2023/10/10 09:17:32;;;;;;;19.45;10.07;;;22.80;99.90;;;;;;5088175;28;20116;-74
2023/10/10 09:20:00;;;;;;;20.02;8.50;;;22.90;99.90;;;;;;5089810;28;20137;-75
2023/10/10 09:22:42;;;;;;;18.25;8.75;;;23.00;71.50;;;;;;5079429;28;20459;-75
2023/10/10 09:25:22;;;;;;;16.67;7.40;;;23.10;76.50;;;;;;5086061;28;20053;-75
2023/10/10 09:27:59;;;;;;;19.85;8.73;;;23.50;39.50;;;;;;5088099;28;20060;-75
2023/10/10 09:30:32;;;;;;;;;;;23.60;45.30;;;;;;5098093;28;20052;-76
2023/10/10 09:33:08;;;;;;;15.02;8.15;;;23.70;36.90;;;;;;5094317;28;19924;-74
2023/10/10 09:35:39;;;;;;;20.67;8.90;;;23.80;8.30;;;;;;5095251;28;20040;-76
2023/10/10 09:38:14;;;;;;;16.75;8.48;;;24.10;99.90;;;;;;5088893;28;20373;-75
2023/10/10 09:40:46;;;;;;;16.10;7.03;;;24.30;99.90;;;;;;5084464;28;20608;-77
2023/10/10 09:43:24;;;;;;;20.35;8.13;;;24.20;99.90;;;;;;5088153;28;20051;-77
2023/10/10 09:45:58;;;;;;;16.77;7.07;;;24.00;99.90;;;;;;5080875;28;20044;-75
2023/10/10 09:48:59;;;;;;;17.35;7.00;;;24.00;1.00;;;;;;5087969;28;20051;-77
2023/10/10 09:54:15;;;;;;;16.38;7.80;;;23.70;1.00;;;;;;5098822;28;20048;-76
2023/10/10 09:56:45;;;;;;;16.15;7.70;;;23.80;1.00;;;;;;5083435;28;20044;-73
2023/10/10 09:59:16;;;;;;;27.58;9.98;;;24.20;1.00;;;;;;5088099;28;20066;-76
2023/10/10 10:01:47;;;;;;;79.75;46.88;;;24.40;1.00;;;;;;5083874;28;20048;-77
2023/10/10 10:04:24;;;;;;;53.58;12.65;;;24.50;1.00;;;;;;5085258;28;20036;-76
2023/10/10 10:07:12;;;;;;;23.02;7.75;;;24.60;1.00;;;;;;5065355;28;20052;-76
2023/10/10 10:10:09;;;;;;;18.27;6.75;;;24.50;99.90;;;;;;5077232;28;20135;-78
2023/10/10 10:12:50;;;;;;;17.02;7.75;;;24.50;99.90;;;;;;5081584;28;20041;-79
2023/10/10 10:15:38;;;;;;;15.20;6.68;;;24.50;1.00;;;;;;5083267;28;20050;-78
2023/10/10 10:18:13;;;;;;;15.38;5.78;;;24.40;1.00;;;;;;5080196;28;20044;-76
2023/10/10 10:21:05;;;;;;;23.98;8.02;;;24.30;99.90;;;;;;5085679;28;20052;-77
2023/10/10 10:23:44;;;;;;;30.30;10.15;;;24.50;1.00;;;;;;5084151;28;20064;-73
2023/10/10 10:26:21;;;;;;;24.63;8.73;;;24.30;1.00;;;;;;5082256;28;20147;-76
2023/10/10 10:28:56;;;;;;;28.13;7.18;;;24.60;1.00;;;;;;5080138;28;20047;-75
2023/10/10 10:31:29;;;;;;;44.63;9.40;;;24.90;1.00;;;;;;5082516;28;20045;-75
2023/10/10 10:34:23;;;;;;;19.17;9.85;;;25.00;99.90;;;;;;5106047;28;20093;-77
2023/10/10 10:36:56;;;;;;;26.58;10.48;;;24.90;1.00;;;;;;5060039;28;20059;-75
2023/10/10 10:39:25;;;;;;;15.30;6.60;;;24.90;1.00;;;;;;5077312;28;20463;-76
2023/10/10 10:42:00;;;;;;;63.83;12.10;;;24.90;1.00;;;;;;5080014;28;20048;-77
2023/10/10 10:47:45;;;;;;;35.28;8.07;;;24.90;1.00;;;;;;5080483;28;20132;-76
2023/10/10 10:50:45;;;;;;;26.67;8.45;;;25.10;99.90;;;;;;5077496;28;20044;-75
2023/10/10 10:53:33;;;;;;;15.18;6.03;;;25.10;99.90;;;;;;5080672;28;20511;-76
2023/10/10 10:59:11;;;;;;;15.40;6.82;;;25.20;1.00;;;;;;5103319;28;20040;-75
2023/10/10 11:01:43;;;;;;;19.05;7.03;;;25.30;1.00;;;;;;5096114;28;20051;-74
2023/10/10 11:04:22;;;;;;;23.17;7.97;;;25.30;99.90;;;;;;5103313;28;20055;-77
2023/10/10 11:06:52;;;;;;;18.17;9.45;;;25.30;1.00;;;;;;5078602;28;20045;-77
2023/10/10 11:09:33;;;;;;;17.63;8.60;;;25.40;1.00;;;;;;5080051;28;20044;-78
2023/10/10 11:12:05;;;;;;;20.95;9.85;;;25.50;1.00;;;;;;5092789;28;20067;-73
2023/10/10 11:14:36;;;;;;;22.75;12.07;;;25.50;1.00;;;;;;5077480;28;20091;-76
2023/10/10 11:17:03;;;;;;;18.20;7.07;;;25.60;23.10;;;;;;5086718;28;20575;-76
2023/10/10 11:19:41;;;;;;;21.63;8.90;;;25.80;41.00;;;;;;5079129;28;20035;-75
2023/10/10 11:22:16;;;;;;;16.35;7.53;;;25.90;51.30;;;;;;5104945;28;20510;-75
2023/10/10 11:24:49;;;;;;;13.27;6.93;;;26.00;83.00;;;;;;5104200;28;20036;-76
2023/10/10 11:27:21;;;;;;;16.70;7.65;;;26.10;99.90;;;;;;5079403;28;20036;-74
2023/10/10 11:29:52;;;;;;;18.60;6.63;;;26.00;99.90;;;;;;5078572;28;20113;-76
2023/10/10 11:32:29;;;;;;;22.95;7.03;;;25.70;99.90;;;;;;5079327;28;20465;-76
2023/10/10 11:35:17;;;;;;;15.35;7.88;;;25.40;99.90;;;;;;5079799;28;20058;-76
2023/10/10 11:37:48;;;;;;;17.95;7.85;;;25.30;99.90;;;;;;5103918;28;20055;-76
2023/10/10 11:40:31;;;;;;;12.70;7.60;;;25.30;99.90;;;;;;5102323;28;20048;-77
2023/10/10 11:42:59;;;;;;;17.95;7.93;;;25.10;99.90;;;;;;5106399;28;20083;-73
2023/10/10 11:45:28;;;;;;;21.15;10.45;;;24.80;99.90;;;;;;5095316;28;20044;-78
2023/10/10 11:48:00;;;;;;;14.20;7.32;;;24.70;99.90;;;;;;5081330;28;20492;-78
2023/10/10 11:50:44;;;;;;;19.67;8.30;;;24.50;99.90;;;;;;5079925;28;20097;-77
2023/10/10 11:53:19;;;;;;;17.60;7.57;;;24.00;99.90;;;;;;5073728;28;20059;-76
2023/10/10 11:55:48;;;;;;;18.48;7.85;;;24.00;99.90;;;;;;5105492;28;20509;-77
2023/10/10 11:58:17;;;;;;;17.63;9.55;;;23.70;99.90;;;;;;5079230;28;20071;-78
2023/10/10 12:00:45;;;;;;;14.60;7.90;;;23.50;99.90;;;;;;5077479;28;20045;-76
2023/10/10 12:03:16;;;;;;;22.02;8.25;;;23.50;99.90;;;;;;5082171;28;20048;-75
2023/10/10 12:05:50;;;;;;;20.02;8.07;;;23.60;99.90;;;;;;5082817;28;20048;-77
2023/10/10 12:08:24;;;;;;;15.93;9.00;;;23.70;99.90;;;;;;5111078;28;20067;-74
2023/10/10 12:10:55;;;;;;;17.88;7.93;;;23.90;99.90;;;;;;5089066;28;20044;-76
2023/10/10 12:13:33;;;;;;;20.30;8.88;;;24.30;99.90;;;;;;5088542;28;20048;-77
2023/10/10 12:16:07;;;;;;;15.07;8.57;;;24.70;99.90;;;;;;5082325;28;20049;-76
2023/10/10 12:18:36;;;;;;;15.13;7.93;;;25.00;99.90;;;;;;5078938;28;20214;-79
2023/10/10 12:21:04;;;;;;;15.75;8.38;;;25.30;99.90;;;;;;5089441;28;20044;-79
2023/10/10 12:23:33;;;;;;;17.60;8.25;;;25.30;99.90;;;;;;5098410;28;20044;-80
2023/10/10 12:26:03;;;;;;;17.20;7.70;;;25.20;99.90;;;;;;5099571;28;20056;-78
2023/10/10 12:28:30;;;;;;;15.32;8.57;;;24.90;99.90;;;;;;5079865;28;20660;-74
2023/10/10 12:31:02;;;;;;;21.45;9.95;;;24.60;99.90;;;;;;5082152;28;20109;-75
2023/10/10 12:33:31;;;;;;;21.90;9.63;;;24.50;99.90;;;;;;5081786;28;20067;-77
2023/10/10 12:35:59;;;;;;;25.05;11.90;;;24.60;99.90;;;;;;5086199;28;20220;-76
2023/10/10 12:38:32;;;;;;;23.45;12.90;;;24.50;99.90;;;;;;5094137;28;20044;-77
2023/10/10 12:41:01;;;;;;;18.33;9.13;;;24.50;99.90;;;;;;5086190;28;20056;-75
2023/10/10 12:43:32;;;;;;;15.38;6.80;;;24.60;99.90;;;;;;5083363;28;20066;-75
2023/10/10 12:46:01;;;;;;;12.90;7.25;;;24.40;99.90;;;;;;5085273;28;20988;-75
2023/10/10 12:48:30;;;;;;;11.35;5.65;;;24.50;99.90;;;;;;5081914;28;20071;-78
2023/10/10 12:51:01;;;;;;;15.30;6.60;;;24.20;99.90;;;;;;5082898;28;20094;-74
2023/10/10 12:53:39;;;;;;;13.68;6.43;;;24.20;99.90;;;;;;5090338;28;20101;-74
2023/10/10 12:56:16;;;;;;;12.23;5.18;;;24.10;99.90;;;;;;5090643;28;20464;-76
2023/10/10 12:58:51;;;;;;;16.17;7.65;;;24.30;99.90;;;;;;5096763;28;20096;-78
2023/10/10 13:01:22;;;;;;;15.90;6.10;;;24.50;99.90;;;;;;5093635;28;20350;-75
2023/10/10 13:03:51;;;;;;;16.67;9.98;;;24.20;99.90;;;;;;5090674;28;20131;-77
2023/10/10 13:06:22;;;;;;;16.58;6.20;;;24.10;99.90;;;;;;5084868;28;20071;-78
2023/10/10 13:08:55;;;;;;;16.15;5.75;;;24.00;99.90;;;;;;5089229;28;20048;-75
2023/10/10 13:11:32;;;;;;;11.35;6.40;;;23.90;99.90;;;;;;5080606;28;20420;-75
2023/10/10 13:14:09;;;;;;;15.85;6.10;;;23.80;99.90;;;;;;5085565;28;20041;-77
2023/10/10 13:16:52;;;;;;;14.35;7.65;;;23.70;99.90;;;;;;5087899;28;20047;-74
2023/10/10 13:19:21;;;;;;;21.02;11.93;;;23.60;99.90;;;;;;5078577;28;20044;-75
2023/10/10 13:21:52;;;;;;;15.02;6.20;;;23.80;99.90;;;;;;5081397;28;20044;-76
2023/10/10 13:24:20;;;;;;;14.35;5.68;;;23.90;99.90;;;;;;5065714;28;20036;-76
2023/10/10 13:26:50;;;;;;;15.13;5.10;;;23.70;99.90;;;;;;5077162;28;20062;-76
2023/10/10 13:29:18;;;;;;;14.18;6.80;;;23.50;99.90;;;;;;5081066;28;20541;-76
2023/10/10 13:31:46;;;;;;;14.65;5.95;;;23.50;99.90;;;;;;5082459;28;20484;-76
2023/10/10 13:34:16;;;;;;;13.00;5.13;;;23.30;99.90;;;;;;5084454;28;20055;-75
2023/10/10 13:36:44;;;;;;;13.25;6.70;;;23.20;99.90;;;;;;5081337;28;20040;-77
2023/10/10 13:39:15;;;;;;;17.10;6.50;;;23.30;99.90;;;;;;5084497;28;20074;-76
2023/10/10 13:41:43;;;;;;;15.07;6.22;;;23.50;99.90;;;;;;5081889;28;20036;-76
2023/10/10 13:44:12;;;;;;;13.00;6.07;;;23.50;99.90;;;;;;5081772;28;20044;-78
2023/10/10 13:46:39;;;;;;;16.40;6.68;;;23.30;99.90;;;;;;5086574;28;20037;-75
2023/10/10 13:49:08;;;;;;;15.93;6.68;;;23.30;99.90;;;;;;5095675;28;20048;-77
2023/10/10 13:51:39;;;;;;;14.75;6.35;;;23.20;99.90;;;;;;5081486;28;20056;-76
2023/10/10 13:54:13;;;;;;;11.30;4.97;;;23.20;99.90;;;;;;5079345;28;20041;-76
2023/10/10 13:56:43;;;;;;;9.10;3.72;;;23.20;99.90;;;;;;5080854;28;20090;-77
2023/10/10 13:59:14;;;;;;;9.85;4.20;;;22.80;99.90;;;;;;5080433;28;20044;-77
2023/10/10 14:01:42;;;;;;;12.10;4.00;;;22.70;99.90;;;;;;5087907;28;20048;-77
2023/10/10 14:04:15;;;;;;;13.45;4.43;;;22.60;99.90;;;;;;5066302;28;20040;-75
2023/10/10 14:06:47;;;;;;;12.80;4.28;;;22.50;99.90;;;;;;5104226;28;20166;-77
2023/10/10 14:09:22;;;;;;;9.90;3.88;;;22.30;99.90;;;;;;5079282;28;20066;-77
2023/10/10 14:11:51;;;;;;;13.32;4.07;;;22.30;99.90;;;;;;5079056;28;20131;-76
2023/10/10 14:14:21;;;;;;;10.93;4.72;;;22.20;99.90;;;;;;5080942;28;20033;-77
2023/10/10 14:16:50;;;;;;;10.13;3.85;;;22.20;99.90;;;;;;5081037;28;20047;-77
2023/10/10 14:19:23;;;;;;;12.82;5.32;;;22.20;99.90;;;;;;5084244;28;20043;-77
2023/10/10 14:21:52;;;;;;;16.17;5.90;;;22.10;99.90;;;;;;5082375;28;20104;-75
2023/10/10 14:24:20;;;;;;;13.70;6.10;;;22.20;99.90;;;;;;5079677;28;20064;-76
2023/10/10 14:26:48;;;;;;;18.77;5.20;;;22.20;99.90;;;;;;5080129;28;20067;-76
2023/10/10 14:29:16;;;;;;;13.57;5.40;;;22.10;99.90;;;;;;5080193;28;20141;-75
2023/10/10 14:31:45;;;;;;;12.35;4.30;;;22.00;99.90;;;;;;5089334;28;20094;-75
2023/10/10 14:34:19;;;;;;;9.05;3.60;;;21.90;99.90;;;;;;5083299;28;20096;-77
2023/10/10 14:36:50;;;;;;;10.60;3.53;;;21.90;99.90;;;;;;5082757;28;20044;-76
2023/10/10 14:39:31;;;;;;;10.68;3.45;;;21.80;99.90;;;;;;5085024;28;20040;-75
2023/10/10 14:41:59;;;;;;;11.02;3.50;;;21.90;99.90;;;;;;5080888;28;20037;-77
2023/10/10 14:44:28;;;;;;;11.63;3.95;;;21.90;99.90;;;;;;5079768;28;20040;-75
2023/10/10 14:46:57;;;;;;;13.82;4.00;;;21.80;99.90;;;;;;5091620;28;20048;-74
2023/10/10 14:49:30;;;;;;;12.43;3.97;;;21.70;99.90;;;;;;5091611;28;20118;-76
2023/10/10 14:52:03;;;;;;;10.05;3.50;;;21.70;99.90;;;;;;5082419;28;20084;-76
2023/10/10 14:54:31;;;;;;;10.27;3.97;;;21.70;99.90;;;;;;5081610;28;20048;-77
2023/10/10 14:56:58;;;;;;;11.88;5.65;;;21.80;99.90;;;;;;5080716;28;20064;-75
2023/10/10 14:59:31;;;;;;;15.00;7.03;;;21.70;99.90;;;;;;5077067;28;20041;-78
2023/10/10 15:02:00;;;;;;;15.65;6.90;;;21.70;99.90;;;;;;5080296;28;20043;-77
2023/10/10 15:04:29;;;;;;;13.95;7.95;;;21.60;99.90;;;;;;5081355;28;20252;-77
2023/10/10 15:06:59;;;;;;;14.75;7.07;;;21.60;99.90;;;;;;5082118;28;20047;-78
2023/10/10 15:09:26;;;;;;;12.25;6.25;;;21.50;99.90;;;;;;5079452;28;20045;-77
2023/10/10 15:11:58;;;;;;;16.73;5.40;;;21.50;99.90;;;;;;5078831;28;20040;-76